sensor_id;sensor_type;location;lat;lon;timestamp;temperature;humidity
12452;DHT22;6291;48.924;12.204;2022-07-23T00:03:38;21.90;87.80
12452;DHT22;6291;48.924;12.204;2022-07-23T00:08:42;21.90;88.20
12452;DHT22;6291;48.924;12.204;2022-07-23T00:13:46;21.80;90.30
12452;DHT22;6291;48.924;12.204;2022-07-23T00:18:49;21.60;90.90
12452;DHT22;6291;48.924;12.204;2022-07-23T00:23:54;21.60;90.50
12452;DHT22;6291;48.924;12.204;2022-07-23T00:28:57;21.90;90.00
12452;DHT22;6291;48.924;12.204;2022-07-23T00:34:01;22.10;89.20
12452;DHT22;6291;48.924;12.204;2022-07-23T00:39:05;22.30;88.40
12452;DHT22;6291;48.924;12.204;2022-07-23T00:44:16;22.40;87.20
12452;DHT22;6291;48.924;12.204;2022-07-23T00:49:20;22.60;85.20
12452;DHT22;6291;48.924;12.204;2022-07-23T00:54:26;22.40;84.40
12452;DHT22;6291;48.924;12.204;2022-07-23T00:59:30;22.20;86.40
12452;DHT22;6291;48.924;12.204;2022-07-23T01:04:33;21.60;89.60
12452;DHT22;6291;48.924;12.204;2022-07-23T01:09:38;21.10;92.10
12452;DHT22;6291;48.924;12.204;2022-07-23T01:14:42;21.20;92.50
12452;DHT22;6291;48.924;12.204;2022-07-23T01:19:45;21.30;92.80
12452;DHT22;6291;48.924;12.204;2022-07-23T01:24:50;21.00;93.70
12452;DHT22;6291;48.924;12.204;2022-07-23T01:30:00;21.00;93.80
12452;DHT22;6291;48.924;12.204;2022-07-23T01:35:05;20.90;93.70
12452;DHT22;6291;48.924;12.204;2022-07-23T01:40:10;21.10;93.50
12452;DHT22;6291;48.924;12.204;2022-07-23T01:45:14;21.30;92.90
12452;DHT22;6291;48.924;12.204;2022-07-23T01:50:22;21.30;92.80
12452;DHT22;6291;48.924;12.204;2022-07-23T01:55:54;21.30;93.30
12452;DHT22;6291;48.924;12.204;2022-07-23T02:00:57;21.50;94.90
12452;DHT22;6291;48.924;12.204;2022-07-23T02:06:01;21.30;96.40
12452;DHT22;6291;48.924;12.204;2022-07-23T02:11:06;20.80;99.90
12452;DHT22;6291;48.924;12.204;2022-07-23T02:16:09;20.30;99.90
12452;DHT22;6291;48.924;12.204;2022-07-23T02:21:14;20.00;99.90
12452;DHT22;6291;48.924;12.204;2022-07-23T02:26:19;21.10;99.90
12452;DHT22;6291;48.924;12.204;2022-07-23T02:31:25;18.30;99.90
12452;DHT22;6291;48.924;12.204;2022-07-23T02:36:31;17.60;99.90
12452;DHT22;6291;48.924;12.204;2022-07-23T02:41:35;17.40;99.90
12452;DHT22;6291;48.924;12.204;2022-07-23T02:46:39;17.30;99.90
12452;DHT22;6291;48.924;12.204;2022-07-23T02:51:42;17.40;99.90
12452;DHT22;6291;48.924;12.204;2022-07-23T02:56:48;17.40;99.90
12452;DHT22;6291;48.924;12.204;2022-07-23T03:01:52;17.40;99.90
12452;DHT22;6291;48.924;12.204;2022-07-23T03:06:56;17.30;99.90
12452;DHT22;6291;48.924;12.204;2022-07-23T03:12:01;17.30;99.90
12452;DHT22;6291;48.924;12.204;2022-07-23T03:17:05;17.20;99.90
12452;DHT22;6291;48.924;12.204;2022-07-23T03:22:10;17.20;99.90
12452;DHT22;6291;48.924;12.204;2022-07-23T03:27:15;17.20;99.90
12452;DHT22;6291;48.924;12.204;2022-07-23T03:32:19;17.20;99.90
12452;DHT22;6291;48.924;12.204;2022-07-23T03:37:22;20.50;99.90
12452;DHT22;6291;48.924;12.204;2022-07-23T03:42:27;17.20;99.90
12452;DHT22;6291;48.924;12.204;2022-07-23T03:47:30;17.10;99.90
12452;DHT22;6291;48.924;12.204;2022-07-23T03:52:36;17.20;99.90
12452;DHT22;6291;48.924;12.204;2022-07-23T03:57:41;17.40;99.90
12452;DHT22;6291;48.924;12.204;2022-07-23T04:02:44;17.50;99.90
12452;DHT22;6291;48.924;12.204;2022-07-23T04:07:48;17.50;99.90
12452;DHT22;6291;48.924;12.204;2022-07-23T04:12:54;17.70;99.90
12452;DHT22;6291;48.924;12.204;2022-07-23T04:17:57;17.80;99.90
12452;DHT22;6291;48.924;12.204;2022-07-23T04:23:10;17.70;99.90
12452;DHT22;6291;48.924;12.204;2022-07-23T04:28:17;17.40;99.90
12452;DHT22;6291;48.924;12.204;2022-07-23T04:33:20;17.40;99.90
12452;DHT22;6291;48.924;12.204;2022-07-23T04:38:25;17.40;99.90
12452;DHT22;6291;48.924;12.204;2022-07-23T04:43:34;17.70;99.90
12452;DHT22;6291;48.924;12.204;2022-07-23T04:48:38;17.80;99.90
12452;DHT22;6291;48.924;12.204;2022-07-23T04:53:44;17.80;99.90
12452;DHT22;6291;48.924;12.204;2022-07-23T04:58:48;17.90;99.90
12452;DHT22;6291;48.924;12.204;2022-07-23T05:03:52;18.00;99.90
12452;DHT22;6291;48.924;12.204;2022-07-23T05:08:55;18.20;99.90
12452;DHT22;6291;48.924;12.204;2022-07-23T05:14:00;18.20;99.90
12452;DHT22;6291;48.924;12.204;2022-07-23T05:19:04;18.30;99.90
12452;DHT22;6291;48.924;12.204;2022-07-23T05:24:09;18.40;99.90
12452;DHT22;6291;48.924;12.204;2022-07-23T05:29:14;18.40;99.90
12452;DHT22;6291;48.924;12.204;2022-07-23T05:34:17;18.20;99.90
12452;DHT22;6291;48.924;12.204;2022-07-23T05:39:22;17.90;99.90
12452;DHT22;6291;48.924;12.204;2022-07-23T05:44:27;17.90;99.90
12452;DHT22;6291;48.924;12.204;2022-07-23T05:49:37;17.80;99.90
12452;DHT22;6291;48.924;12.204;2022-07-23T05:54:58;18.10;99.90
12452;DHT22;6291;48.924;12.204;2022-07-23T06:00:04;18.40;99.90
12452;DHT22;6291;48.924;12.204;2022-07-23T06:05:14;18.30;99.90
12452;DHT22;6291;48.924;12.204;2022-07-23T06:10:19;18.20;99.90
12452;DHT22;6291;48.924;12.204;2022-07-23T06:15:25;18.10;99.90
12452;DHT22;6291;48.924;12.204;2022-07-23T06:20:28;19.60;99.90
12452;DHT22;6291;48.924;12.204;2022-07-23T06:25:32;18.30;99.90
12452;DHT22;6291;48.924;12.204;2022-07-23T06:30:37;18.70;99.90
12452;DHT22;6291;48.924;12.204;2022-07-23T06:35:42;18.40;99.90
12452;DHT22;6291;48.924;12.204;2022-07-23T06:40:45;18.40;99.90
12452;DHT22;6291;48.924;12.204;2022-07-23T06:45:50;18.30;99.90
12452;DHT22;6291;48.924;12.204;2022-07-23T06:50:54;18.20;99.90
12452;DHT22;6291;48.924;12.204;2022-07-23T06:55:59;18.60;99.90
12452;DHT22;6291;48.924;12.204;2022-07-23T07:01:03;18.70;99.90
12452;DHT22;6291;48.924;12.204;2022-07-23T07:06:07;18.70;99.90
12452;DHT22;6291;48.924;12.204;2022-07-23T07:11:11;18.40;99.90
12452;DHT22;6291;48.924;12.204;2022-07-23T07:16:15;18.50;99.90
12452;DHT22;6291;48.924;12.204;2022-07-23T07:21:19;18.80;99.90
12452;DHT22;6291;48.924;12.204;2022-07-23T07:26:22;19.00;99.90
12452;DHT22;6291;48.924;12.204;2022-07-23T07:31:27;19.10;99.90
12452;DHT22;6291;48.924;12.204;2022-07-23T07:36:30;19.00;99.90
12452;DHT22;6291;48.924;12.204;2022-07-23T07:41:34;18.80;99.90
12452;DHT22;6291;48.924;12.204;2022-07-23T07:46:39;18.90;99.90
12452;DHT22;6291;48.924;12.204;2022-07-23T07:51:43;19.10;99.90
12452;DHT22;6291;48.924;12.204;2022-07-23T07:56:46;18.90;99.90
12452;DHT22;6291;48.924;12.204;2022-07-23T08:01:52;18.80;99.90
12452;DHT22;6291;48.924;12.204;2022-07-23T08:06:55;19.20;99.90
12452;DHT22;6291;48.924;12.204;2022-07-23T08:11:58;19.40;99.90
12452;DHT22;6291;48.924;12.204;2022-07-23T08:17:03;19.50;99.90
12452;DHT22;6291;48.924;12.204;2022-07-23T08:22:15;19.40;99.90
12452;DHT22;6291;48.924;12.204;2022-07-23T08:27:19;19.70;99.90
12452;DHT22;6291;48.924;12.204;2022-07-23T08:32:23;20.00;99.90
12452;DHT22;6291;48.924;12.204;2022-07-23T08:37:46;20.50;99.90
12452;DHT22;6291;48.924;12.204;2022-07-23T08:42:50;20.80;99.90
12452;DHT22;6291;48.924;12.204;2022-07-23T08:47:56;21.20;99.90
12452;DHT22;6291;48.924;12.204;2022-07-23T08:53:06;21.30;99.90
12452;DHT22;6291;48.924;12.204;2022-07-23T08:58:09;21.70;99.90
12452;DHT22;6291;48.924;12.204;2022-07-23T09:03:17;21.90;99.90
12452;DHT22;6291;48.924;12.204;2022-07-23T09:08:22;22.10;99.90
12452;DHT22;6291;48.924;12.204;2022-07-23T09:13:34;22.20;99.90
12452;DHT22;6291;48.924;12.204;2022-07-23T09:18:42;22.50;99.90
12452;DHT22;6291;48.924;12.204;2022-07-23T09:23:50;22.70;99.90
12452;DHT22;6291;48.924;12.204;2022-07-23T09:28:56;22.80;99.90
12452;DHT22;6291;48.924;12.204;2022-07-23T09:34:09;22.90;99.90
12452;DHT22;6291;48.924;12.204;2022-07-23T09:39:15;22.90;99.90
12452;DHT22;6291;48.924;12.204;2022-07-23T09:44:20;22.90;99.90
12452;DHT22;6291;48.924;12.204;2022-07-23T09:49:30;23.00;99.90
12452;DHT22;6291;48.924;12.204;2022-07-23T09:54:36;21.70;99.90
12452;DHT22;6291;48.924;12.204;2022-07-23T09:59:40;23.10;99.90
12452;DHT22;6291;48.924;12.204;2022-07-23T10:04:46;22.90;99.90
12452;DHT22;6291;48.924;12.204;2022-07-23T10:09:58;23.30;99.90
12452;DHT22;6291;48.924;12.204;2022-07-23T10:15:03;23.60;99.90
12452;DHT22;6291;48.924;12.204;2022-07-23T10:20:09;24.00;99.90
12452;DHT22;6291;48.924;12.204;2022-07-23T10:25:21;23.90;99.90
12452;DHT22;6291;48.924;12.204;2022-07-23T10:30:32;23.80;99.90
12452;DHT22;6291;48.924;12.204;2022-07-23T10:35:43;24.90;99.90
12452;DHT22;6291;48.924;12.204;2022-07-23T10:40:54;25.70;99.90
12452;DHT22;6291;48.924;12.204;2022-07-23T10:46:22;26.00;99.90
12452;DHT22;6291;48.924;12.204;2022-07-23T10:51:30;26.10;99.90
12452;DHT22;6291;48.924;12.204;2022-07-23T10:57:06;27.50;99.90
12452;DHT22;6291;48.924;12.204;2022-07-23T11:02:23;27.60;99.90
12452;DHT22;6291;48.924;12.204;2022-07-23T11:07:29;27.60;96.30
12452;DHT22;6291;48.924;12.204;2022-07-23T11:12:36;27.40;94.90
12452;DHT22;6291;48.924;12.204;2022-07-23T11:17:58;27.20;96.10
12452;DHT22;6291;48.924;12.204;2022-07-23T11:23:04;27.70;94.10
12452;DHT22;6291;48.924;12.204;2022-07-23T11:28:13;28.70;91.80
12452;DHT22;6291;48.924;12.204;2022-07-23T11:33:20;28.70;89.60
12452;DHT22;6291;48.924;12.204;2022-07-23T11:38:25;29.80;85.40
12452;DHT22;6291;48.924;12.204;2022-07-23T11:43:29;28.20;86.80
12452;DHT22;6291;48.924;12.204;2022-07-23T11:48:33;29.10;84.20
12452;DHT22;6291;48.924;12.204;2022-07-23T11:53:46;29.00;81.80
12452;DHT22;6291;48.924;12.204;2022-07-23T11:58:55;30.00;77.40
12452;DHT22;6291;48.924;12.204;2022-07-23T12:04:01;30.30;78.40
12452;DHT22;6291;48.924;12.204;2022-07-23T12:09:10;31.60;75.00
12452;DHT22;6291;48.924;12.204;2022-07-23T12:14:14;30.30;78.40
12452;DHT22;6291;48.924;12.204;2022-07-23T12:19:18;29.40;82.90
12452;DHT22;6291;48.924;12.204;2022-07-23T12:24:23;28.80;86.40
12452;DHT22;6291;48.924;12.204;2022-07-23T12:29:34;29.90;84.70
12452;DHT22;6291;48.924;12.204;2022-07-23T12:34:38;32.80;76.00
12452;DHT22;6291;48.924;12.204;2022-07-23T12:39:43;33.70;70.70
12452;DHT22;6291;48.924;12.204;2022-07-23T12:45:07;35.40;62.50
12452;DHT22;6291;48.924;12.204;2022-07-23T12:50:33;36.20;53.90
12452;DHT22;6291;48.924;12.204;2022-07-23T12:55:39;36.20;54.10
12452;DHT22;6291;48.924;12.204;2022-07-23T13:01:04;35.90;50.10
12452;DHT22;6291;48.924;12.204;2022-07-23T13:06:10;35.70;51.90
12452;DHT22;6291;48.924;12.204;2022-07-23T13:11:16;36.00;50.60
12452;DHT22;6291;48.924;12.204;2022-07-23T13:16:22;36.30;48.10
12452;DHT22;6291;48.924;12.204;2022-07-23T13:21:29;37.00;47.70
12452;DHT22;6291;48.924;12.204;2022-07-23T13:26:34;37.70;48.00
12452;DHT22;6291;48.924;12.204;2022-07-23T13:31:39;38.60;41.10
12452;DHT22;6291;48.924;12.204;2022-07-23T13:36:43;37.30;41.80
12452;DHT22;6291;48.924;12.204;2022-07-23T13:41:50;34.60;47.30
12452;DHT22;6291;48.924;12.204;2022-07-23T13:46:54;33.40;47.70
12452;DHT22;6291;48.924;12.204;2022-07-23T13:51:59;32.60;51.10
12452;DHT22;6291;48.924;12.204;2022-07-23T13:57:04;33.80;47.50
12452;DHT22;6291;48.924;12.204;2022-07-23T14:02:07;33.60;48.50
12452;DHT22;6291;48.924;12.204;2022-07-23T14:07:23;34.90;48.40
12452;DHT22;6291;48.924;12.204;2022-07-23T14:12:28;34.00;48.80
12452;DHT22;6291;48.924;12.204;2022-07-23T14:17:36;33.00;50.10
12452;DHT22;6291;48.924;12.204;2022-07-23T14:22:40;32.20;51.10
12452;DHT22;6291;48.924;12.204;2022-07-23T14:27:45;32.20;51.00
12452;DHT22;6291;48.924;12.204;2022-07-23T14:32:49;31.20;53.00
12452;DHT22;6291;48.924;12.204;2022-07-23T14:37:52;30.30;55.70
12452;DHT22;6291;48.924;12.204;2022-07-23T14:42:57;29.80;56.60
12452;DHT22;6291;48.924;12.204;2022-07-23T14:48:00;29.50;58.70
12452;DHT22;6291;48.924;12.204;2022-07-23T14:53:06;29.30;57.80
12452;DHT22;6291;48.924;12.204;2022-07-23T14:58:11;29.10;58.90
12452;DHT22;6291;48.924;12.204;2022-07-23T15:03:14;29.10;58.60
12452;DHT22;6291;48.924;12.204;2022-07-23T15:08:18;28.90;59.30
12452;DHT22;6291;48.924;12.204;2022-07-23T15:13:26;28.70;61.40
12452;DHT22;6291;48.924;12.204;2022-07-23T15:18:29;28.70;59.80
12452;DHT22;6291;48.924;12.204;2022-07-23T15:23:33;28.60;60.30
12452;DHT22;6291;48.924;12.204;2022-07-23T15:28:38;28.70;60.80
12452;DHT22;6291;48.924;12.204;2022-07-23T15:33:41;28.70;59.70
12452;DHT22;6291;48.924;12.204;2022-07-23T15:38:45;28.70;60.30
12452;DHT22;6291;48.924;12.204;2022-07-23T15:43:50;28.80;60.80
12452;DHT22;6291;48.924;12.204;2022-07-23T15:48:56;30.00;61.60
12452;DHT22;6291;48.924;12.204;2022-07-23T15:54:00;33.30;53.40
12452;DHT22;6291;48.924;12.204;2022-07-23T15:59:05;33.20;50.10
12452;DHT22;6291;48.924;12.204;2022-07-23T16:04:10;31.50;52.70
12452;DHT22;6291;48.924;12.204;2022-07-23T16:09:13;31.20;52.00
12452;DHT22;6291;48.924;12.204;2022-07-23T16:14:22;31.10;53.40
12452;DHT22;6291;48.924;12.204;2022-07-23T16:19:26;30.70;54.00
12452;DHT22;6291;48.924;12.204;2022-07-23T16:24:29;30.30;53.80
12452;DHT22;6291;48.924;12.204;2022-07-23T16:29:34;30.70;56.30
12452;DHT22;6291;48.924;12.204;2022-07-23T16:34:37;28.50;57.90
12452;DHT22;6291;48.924;12.204;2022-07-23T16:39:41;28.60;58.90
12452;DHT22;6291;48.924;12.204;2022-07-23T16:44:45;28.30;57.60
12452;DHT22;6291;48.924;12.204;2022-07-23T16:49:49;28.00;59.40
12452;DHT22;6291;48.924;12.204;2022-07-23T16:54:52;28.20;60.40
12452;DHT22;6291;48.924;12.204;2022-07-23T16:59:57;27.30;67.70
12452;DHT22;6291;48.924;12.204;2022-07-23T17:05:00;27.30;67.80
12452;DHT22;6291;48.924;12.204;2022-07-23T17:10:05;27.80;67.30
12452;DHT22;6291;48.924;12.204;2022-07-23T17:15:11;28.10;63.20
12452;DHT22;6291;48.924;12.204;2022-07-23T17:20:16;28.60;61.90
12452;DHT22;6291;48.924;12.204;2022-07-23T17:25:20;29.00;59.90
12452;DHT22;6291;48.924;12.204;2022-07-23T17:30:27;28.30;60.40
12452;DHT22;6291;48.924;12.204;2022-07-23T17:35:30;28.10;61.90
12452;DHT22;6291;48.924;12.204;2022-07-23T17:40:34;27.90;71.40
12452;DHT22;6291;48.924;12.204;2022-07-23T17:45:38;27.20;76.10
12452;DHT22;6291;48.924;12.204;2022-07-23T17:50:44;26.40;87.30
12452;DHT22;6291;48.924;12.204;2022-07-23T17:55:54;26.10;96.10
12452;DHT22;6291;48.924;12.204;2022-07-23T18:00:58;25.90;99.30
12452;DHT22;6291;48.924;12.204;2022-07-23T18:06:02;25.60;99.90
12452;DHT22;6291;48.924;12.204;2022-07-23T18:11:06;25.50;99.90
12452;DHT22;6291;48.924;12.204;2022-07-23T18:16:10;25.50;99.90
12452;DHT22;6291;48.924;12.204;2022-07-23T18:21:14;25.50;99.90
12452;DHT22;6291;48.924;12.204;2022-07-23T18:26:18;25.30;99.90
12452;DHT22;6291;48.924;12.204;2022-07-23T18:31:23;25.20;99.90
12452;DHT22;6291;48.924;12.204;2022-07-23T18:36:26;24.30;99.90
12452;DHT22;6291;48.924;12.204;2022-07-23T18:41:33;25.00;99.90
12452;DHT22;6291;48.924;12.204;2022-07-23T18:46:38;24.80;99.90
12452;DHT22;6291;48.924;12.204;2022-07-23T18:51:42;24.70;99.90
12452;DHT22;6291;48.924;12.204;2022-07-23T18:56:45;24.10;99.90
12452;DHT22;6291;48.924;12.204;2022-07-23T19:01:50;23.80;99.90
12452;DHT22;6291;48.924;12.204;2022-07-23T19:06:53;23.80;99.90
12452;DHT22;6291;48.924;12.204;2022-07-23T19:11:57;23.80;99.90
12452;DHT22;6291;48.924;12.204;2022-07-23T19:17:02;23.70;99.90
12452;DHT22;6291;48.924;12.204;2022-07-23T19:22:05;23.60;99.90
12452;DHT22;6291;48.924;12.204;2022-07-23T19:27:10;23.60;99.90
12452;DHT22;6291;48.924;12.204;2022-07-23T19:32:15;23.60;99.90
12452;DHT22;6291;48.924;12.204;2022-07-23T19:37:19;23.60;99.90
12452;DHT22;6291;48.924;12.204;2022-07-23T19:42:22;23.50;99.90
12452;DHT22;6291;48.924;12.204;2022-07-23T19:47:27;23.50;99.90
12452;DHT22;6291;48.924;12.204;2022-07-23T19:52:31;23.50;99.90
12452;DHT22;6291;48.924;12.204;2022-07-23T19:57:36;23.30;99.90
12452;DHT22;6291;48.924;12.204;2022-07-23T20:02:41;23.30;99.90
12452;DHT22;6291;48.924;12.204;2022-07-23T20:07:45;23.10;99.90
12452;DHT22;6291;48.924;12.204;2022-07-23T20:12:49;22.90;99.90
12452;DHT22;6291;48.924;12.204;2022-07-23T20:17:54;22.70;99.90
12452;DHT22;6291;48.924;12.204;2022-07-23T20:22:57;22.60;99.90
12452;DHT22;6291;48.924;12.204;2022-07-23T20:28:00;19.60;99.90
12452;DHT22;6291;48.924;12.204;2022-07-23T20:33:05;22.30;99.90
12452;DHT22;6291;48.924;12.204;2022-07-23T20:38:09;22.30;99.90
12452;DHT22;6291;48.924;12.204;2022-07-23T20:43:12;22.20;99.90
12452;DHT22;6291;48.924;12.204;2022-07-23T20:48:17;22.10;99.90
12452;DHT22;6291;48.924;12.204;2022-07-23T20:53:30;20.50;99.90
12452;DHT22;6291;48.924;12.204;2022-07-23T20:58:33;22.10;99.90
12452;DHT22;6291;48.924;12.204;2022-07-23T21:03:38;22.00;99.90
12452;DHT22;6291;48.924;12.204;2022-07-23T21:08:41;21.80;99.90
12452;DHT22;6291;48.924;12.204;2022-07-23T21:13:45;22.00;99.90
12452;DHT22;6291;48.924;12.204;2022-07-23T21:18:50;22.00;99.90
12452;DHT22;6291;48.924;12.204;2022-07-23T21:23:53;22.00;99.90
12452;DHT22;6291;48.924;12.204;2022-07-23T21:28:57;21.70;99.90
12452;DHT22;6291;48.924;12.204;2022-07-23T21:34:03;21.50;99.90
12452;DHT22;6291;48.924;12.204;2022-07-23T21:39:06;21.60;99.90
12452;DHT22;6291;48.924;12.204;2022-07-23T21:44:10;21.60;99.90
12452;DHT22;6291;48.924;12.204;2022-07-23T21:49:15;21.50;99.90
12452;DHT22;6291;48.924;12.204;2022-07-23T21:54:18;21.30;99.90
12452;DHT22;6291;48.924;12.204;2022-07-23T21:59:22;21.40;99.90
12452;DHT22;6291;48.924;12.204;2022-07-23T22:04:27;21.40;99.90
12452;DHT22;6291;48.924;12.204;2022-07-23T22:09:30;20.90;99.90
12452;DHT22;6291;48.924;12.204;2022-07-23T22:14:34;20.90;99.90
12452;DHT22;6291;48.924;12.204;2022-07-23T22:19:38;20.90;99.90
12452;DHT22;6291;48.924;12.204;2022-07-23T22:24:42;21.00;99.90
12452;DHT22;6291;48.924;12.204;2022-07-23T22:29:45;20.90;99.90
12452;DHT22;6291;48.924;12.204;2022-07-23T22:34:50;20.60;99.90
12452;DHT22;6291;48.924;12.204;2022-07-23T22:39:53;20.80;99.90
12452;DHT22;6291;48.924;12.204;2022-07-23T22:44:56;20.70;99.90
12452;DHT22;6291;48.924;12.204;2022-07-23T22:50:02;20.80;99.90
12452;DHT22;6291;48.924;12.204;2022-07-23T22:55:12;20.90;99.90
12452;DHT22;6291;48.924;12.204;2022-07-23T23:00:15;20.80;99.90
12452;DHT22;6291;48.924;12.204;2022-07-23T23:05:22;20.50;99.90
12452;DHT22;6291;48.924;12.204;2022-07-23T23:10:25;20.50;99.90
12452;DHT22;6291;48.924;12.204;2022-07-23T23:15:28;20.40;99.90
12452;DHT22;6291;48.924;12.204;2022-07-23T23:20:33;20.40;99.90
12452;DHT22;6291;48.924;12.204;2022-07-23T23:25:37;20.50;99.90
12452;DHT22;6291;48.924;12.204;2022-07-23T23:30:40;20.40;99.90
12452;DHT22;6291;48.924;12.204;2022-07-23T23:35:49;20.30;99.90
12452;DHT22;6291;48.924;12.204;2022-07-23T23:40:52;20.30;99.90
12452;DHT22;6291;48.924;12.204;2022-07-23T23:45:55;20.50;99.90
12452;DHT22;6291;48.924;12.204;2022-07-23T23:51:00;20.40;99.90
12452;DHT22;6291;48.924;12.204;2022-07-23T23:56:04;20.30;99.90
